CheckWX is a tool to help pilots better visualize weather data.  It is not intended as a substitute for an official pre-flight weather briefing.

04:43:40 UTC

KMGW METAR
Morgantown Municipal-Walter L Bill Hart Field Airport
Morgantown, West Virginia, USA
Current

51 mins ago

KMGW 170353Z AUTO 01004KT 10SM BKN041 21/18 A3007 RMK AO2 SLP173 T02110183
Observed
Sep-17 @ 03:53 UTC
Wind
  • 010° at 4 KTS
Visibility
10 SM
Flight Rules
VFR
Cloud Levels
  • Broken at 4,100' AGL
Temperature
21°C / 70°F
Dewpoint
18°C / 64°F
Humidity
83%
Altimeter
30.07" Hg
Pressure
1018.32 hPa
Previous

2 hours ago

KMGW 170253Z 00000KT 10SM CLR 22/18 A3007 RMK AO2 SLP173 T02220183 53014
Observed
Sep-17 @ 02:53 UTC
Visibility
10 SM
Flight Rules
VFR
Cloud Levels
  • Clear skies
Temperature
22°C / 72°F
Dewpoint
18°C / 64°F
Humidity
78%
Altimeter
30.07" Hg
Pressure
1018.32 hPa
Previous

3 hours ago

KMGW 170153Z 01005KT 10SM FEW060 23/18 A3006 RMK AO2 SLP167 T02330178
Observed
Sep-17 @ 01:53 UTC
Wind
  • 010° at 5 KTS
Visibility
10 SM
Flight Rules
VFR
Cloud Levels
  • Few at 6,000' AGL
Temperature
23°C / 73°F
Dewpoint
18°C / 64°F
Humidity
74%
Altimeter
30.06" Hg
Pressure
1017.92 hPa